sensor_id;sensor_type;location;lat;lon;timestamp;temperature;humidity
45237;DHT22;30973;51.442;3.580;2022-08-30T00:01:21;19.40;99.90
45237;DHT22;30973;51.442;3.580;2022-08-30T00:03:50;19.40;99.80
45237;DHT22;30973;51.442;3.580;2022-08-30T00:06:18;19.40;99.70
45237;DHT22;30973;51.442;3.580;2022-08-30T00:08:47;19.50;99.90
45237;DHT22;30973;51.442;3.580;2022-08-30T00:11:20;19.40;99.90
45237;DHT22;30973;51.442;3.580;2022-08-30T00:13:50;19.40;99.90
45237;DHT22;30973;51.442;3.580;2022-08-30T00:16:19;19.40;99.90
45237;DHT22;30973;51.442;3.580;2022-08-30T00:18:47;19.30;99.90
45237;DHT22;30973;51.442;3.580;2022-08-30T00:21:14;19.30;99.90
45237;DHT22;30973;51.442;3.580;2022-08-30T00:23:42;19.30;99.90
45237;DHT22;30973;51.442;3.580;2022-08-30T00:26:09;19.20;99.90
45237;DHT22;30973;51.442;3.580;2022-08-30T00:28:37;19.20;99.90
45237;DHT22;30973;51.442;3.580;2022-08-30T00:31:05;19.20;99.90
45237;DHT22;30973;51.442;3.580;2022-08-30T00:33:32;19.20;99.90
45237;DHT22;30973;51.442;3.580;2022-08-30T06:53:11;21.20;99.90
45237;DHT22;30973;51.442;3.580;2022-08-30T06:55:38;21.20;99.90
45237;DHT22;30973;51.442;3.580;2022-08-30T06:58:06;21.00;99.90
45237;DHT22;30973;51.442;3.580;2022-08-30T07:00:33;21.00;99.60
45237;DHT22;30973;51.442;3.580;2022-08-30T07:03:02;21.00;99.50
45237;DHT22;30973;51.442;3.580;2022-08-30T07:05:29;20.80;99.80
45237;DHT22;30973;51.442;3.580;2022-08-30T07:07:58;20.80;99.70
45237;DHT22;30973;51.442;3.580;2022-08-30T07:10:25;20.80;99.60
45237;DHT22;30973;51.442;3.580;2022-08-30T07:12:52;20.80;99.60
45237;DHT22;30973;51.442;3.580;2022-08-30T07:15:20;20.80;99.60
45237;DHT22;30973;51.442;3.580;2022-08-30T07:17:49;20.90;99.60
45237;DHT22;30973;51.442;3.580;2022-08-30T07:20:36;20.90;99.60
45237;DHT22;30973;51.442;3.580;2022-08-30T07:23:07;20.90;99.30
45237;DHT22;30973;51.442;3.580;2022-08-30T07:25:42;21.00;99.30
45237;DHT22;30973;51.442;3.580;2022-08-30T07:28:10;21.00;99.10
45237;DHT22;30973;51.442;3.580;2022-08-30T07:30:39;21.00;99.10
45237;DHT22;30973;51.442;3.580;2022-08-30T07:33:07;21.00;99.10
45237;DHT22;30973;51.442;3.580;2022-08-30T07:35:34;21.10;99.00
45237;DHT22;30973;51.442;3.580;2022-08-30T07:38:03;21.00;98.90
45237;DHT22;30973;51.442;3.580;2022-08-30T07:40:30;21.10;99.00
45237;DHT22;30973;51.442;3.580;2022-08-30T07:42:58;21.10;99.00
45237;DHT22;30973;51.442;3.580;2022-08-30T07:45:28;21.20;98.90
45237;DHT22;30973;51.442;3.580;2022-08-30T07:47:55;21.10;98.80
45237;DHT22;30973;51.442;3.580;2022-08-30T07:50:23;21.20;98.70
45237;DHT22;30973;51.442;3.580;2022-08-30T07:52:51;21.30;98.50
45237;DHT22;30973;51.442;3.580;2022-08-30T07:55:18;21.40;98.50
45237;DHT22;30973;51.442;3.580;2022-08-30T07:57:45;21.50;98.30
45237;DHT22;30973;51.442;3.580;2022-08-30T08:00:13;21.50;98.60
45237;DHT22;30973;51.442;3.580;2022-08-30T08:02:40;21.30;98.20
45237;DHT22;30973;51.442;3.580;2022-08-30T08:05:08;21.20;98.20
45237;DHT22;30973;51.442;3.580;2022-08-30T08:07:42;21.30;98.20
45237;DHT22;30973;51.442;3.580;2022-08-30T08:10:10;21.50;97.90
45237;DHT22;30973;51.442;3.580;2022-08-30T08:12:38;21.50;98.00
45237;DHT22;30973;51.442;3.580;2022-08-30T08:15:06;21.60;97.90
45237;DHT22;30973;51.442;3.580;2022-08-30T08:17:35;21.70;97.80
45237;DHT22;30973;51.442;3.580;2022-08-30T08:20:03;21.80;97.60
45237;DHT22;30973;51.442;3.580;2022-08-30T08:22:30;21.90;97.50
45237;DHT22;30973;51.442;3.580;2022-08-30T08:25:00;22.00;97.60
45237;DHT22;30973;51.442;3.580;2022-08-30T08:27:27;22.10;97.30
45237;DHT22;30973;51.442;3.580;2022-08-30T08:29:55;22.20;97.00
45237;DHT22;30973;51.442;3.580;2022-08-30T08:32:22;22.30;96.90
45237;DHT22;30973;51.442;3.580;2022-08-30T08:34:49;22.40;97.10
45237;DHT22;30973;51.442;3.580;2022-08-30T08:37:16;22.60;96.60
45237;DHT22;30973;51.442;3.580;2022-08-30T08:39:46;22.60;96.40
45237;DHT22;30973;51.442;3.580;2022-08-30T08:45:00;22.70;96.00
45237;DHT22;30973;51.442;3.580;2022-08-30T08:50:19;22.90;95.70
45237;DHT22;30973;51.442;3.580;2022-08-30T08:52:48;23.00;95.80
45237;DHT22;30973;51.442;3.580;2022-08-30T08:55:48;23.10;95.50
45237;DHT22;30973;51.442;3.580;2022-08-30T08:58:28;23.30;95.90
45237;DHT22;30973;51.442;3.580;2022-08-30T09:00:57;23.50;95.20
45237;DHT22;30973;51.442;3.580;2022-08-30T09:03:27;23.60;94.80
45237;DHT22;30973;51.442;3.580;2022-08-30T09:05:55;23.60;94.70
45237;DHT22;30973;51.442;3.580;2022-08-30T09:08:23;23.70;94.70
45237;DHT22;30973;51.442;3.580;2022-08-30T09:11:01;23.70;94.20
45237;DHT22;30973;51.442;3.580;2022-08-30T09:13:29;23.80;94.30
45237;DHT22;30973;51.442;3.580;2022-08-30T09:15:57;23.60;93.50
45237;DHT22;30973;51.442;3.580;2022-08-30T09:18:46;23.60;94.00
45237;DHT22;30973;51.442;3.580;2022-08-30T09:21:23;23.60;93.80
45237;DHT22;30973;51.442;3.580;2022-08-30T09:23:58;23.60;93.90
45237;DHT22;30973;51.442;3.580;2022-08-30T09:26:31;23.60;93.50
45237;DHT22;30973;51.442;3.580;2022-08-30T09:28:58;23.60;93.50
45237;DHT22;30973;51.442;3.580;2022-08-30T09:31:30;23.60;93.30
45237;DHT22;30973;51.442;3.580;2022-08-30T09:34:05;23.60;93.50
45237;DHT22;30973;51.442;3.580;2022-08-30T09:36:51;23.70;93.50
45237;DHT22;30973;51.442;3.580;2022-08-30T09:41:54;23.90;93.60
45237;DHT22;30973;51.442;3.580;2022-08-30T09:44:37;23.90;93.10
45237;DHT22;30973;51.442;3.580;2022-08-30T09:47:21;23.80;93.00
45237;DHT22;30973;51.442;3.580;2022-08-30T09:50:03;23.80;92.90
45237;DHT22;30973;51.442;3.580;2022-08-30T09:52:50;23.60;93.10
45237;DHT22;30973;51.442;3.580;2022-08-30T09:55:48;23.50;92.90
45237;DHT22;30973;51.442;3.580;2022-08-30T10:01:22;23.40;93.00
45237;DHT22;30973;51.442;3.580;2022-08-30T10:06:45;23.40;93.10
45237;DHT22;30973;51.442;3.580;2022-08-30T10:12:19;23.50;92.90
45237;DHT22;30973;51.442;3.580;2022-08-30T10:21:00;23.90;92.80
45237;DHT22;30973;51.442;3.580;2022-08-30T10:23:44;24.00;92.40
45237;DHT22;30973;51.442;3.580;2022-08-30T10:29:21;24.10;92.50
45237;DHT22;30973;51.442;3.580;2022-08-30T10:31:58;24.30;91.90
45237;DHT22;30973;51.442;3.580;2022-08-30T10:34:35;23.90;91.70
45237;DHT22;30973;51.442;3.580;2022-08-30T10:37:09;23.80;91.90
45237;DHT22;30973;51.442;3.580;2022-08-30T10:39:46;23.70;92.10
45237;DHT22;30973;51.442;3.580;2022-08-30T10:42:18;23.80;92.20
45237;DHT22;30973;51.442;3.580;2022-08-30T10:44:52;23.80;92.30
45237;DHT22;30973;51.442;3.580;2022-08-30T10:47:38;23.80;92.10
45237;DHT22;30973;51.442;3.580;2022-08-30T10:50:15;23.80;92.10
45237;DHT22;30973;51.442;3.580;2022-08-30T10:52:55;23.80;92.40
45237;DHT22;30973;51.442;3.580;2022-08-30T10:55:34;23.80;92.10
45237;DHT22;30973;51.442;3.580;2022-08-30T10:58:04;23.80;91.90
45237;DHT22;30973;51.442;3.580;2022-08-30T11:03:54;23.90;91.70
45237;DHT22;30973;51.442;3.580;2022-08-30T11:06:39;23.90;91.90
45237;DHT22;30973;51.442;3.580;2022-08-30T11:14:59;24.20;91.60
45237;DHT22;30973;51.442;3.580;2022-08-30T11:17:35;24.40;91.20
45237;DHT22;30973;51.442;3.580;2022-08-30T11:20:04;24.50;90.90
45237;DHT22;30973;51.442;3.580;2022-08-30T11:25:57;24.40;90.50
45237;DHT22;30973;51.442;3.580;2022-08-30T11:31:09;24.30;90.10
45237;DHT22;30973;51.442;3.580;2022-08-30T11:33:44;24.30;90.20
45237;DHT22;30973;51.442;3.580;2022-08-30T11:42:34;24.50;90.10
45237;DHT22;30973;51.442;3.580;2022-08-30T11:48:03;24.60;89.00
45237;DHT22;30973;51.442;3.580;2022-08-30T11:56:20;24.90;88.30
45237;DHT22;30973;51.442;3.580;2022-08-30T12:01:32;25.00;87.10
45237;DHT22;30973;51.442;3.580;2022-08-30T12:06:53;24.90;87.40
45237;DHT22;30973;51.442;3.580;2022-08-30T12:12:06;25.00;87.50
45237;DHT22;30973;51.442;3.580;2022-08-30T12:14:41;25.00;87.30
45237;DHT22;30973;51.442;3.580;2022-08-30T12:17:49;24.90;87.20
45237;DHT22;30973;51.442;3.580;2022-08-30T12:20:46;24.90;86.20
45237;DHT22;30973;51.442;3.580;2022-08-30T12:29:11;24.80;86.70
45237;DHT22;30973;51.442;3.580;2022-08-30T12:31:58;24.70;86.30
45237;DHT22;30973;51.442;3.580;2022-08-30T12:34:36;24.60;86.30
45237;DHT22;30973;51.442;3.580;2022-08-30T12:37:19;24.60;86.30
45237;DHT22;30973;51.442;3.580;2022-08-30T12:39:47;24.70;85.80
45237;DHT22;30973;51.442;3.580;2022-08-30T12:44:58;24.80;85.40
45237;DHT22;30973;51.442;3.580;2022-08-30T12:47:46;24.80;86.20
45237;DHT22;30973;51.442;3.580;2022-08-30T12:50:21;24.80;85.80
45237;DHT22;30973;51.442;3.580;2022-08-30T12:56:03;24.80;85.80
45237;DHT22;30973;51.442;3.580;2022-08-30T12:58:35;25.00;85.50
45237;DHT22;30973;51.442;3.580;2022-08-30T13:06:47;25.20;83.30
45237;DHT22;30973;51.442;3.580;2022-08-30T13:12:02;25.20;83.00
45237;DHT22;30973;51.442;3.580;2022-08-30T13:14:39;25.10;82.30
45237;DHT22;30973;51.442;3.580;2022-08-30T13:17:10;25.30;83.80
45237;DHT22;30973;51.442;3.580;2022-08-30T13:19:41;25.30;83.00
45237;DHT22;30973;51.442;3.580;2022-08-30T13:22:33;25.20;82.10
45237;DHT22;30973;51.442;3.580;2022-08-30T13:25:01;25.10;82.70
45237;DHT22;30973;51.442;3.580;2022-08-30T13:27:33;25.00;82.50
45237;DHT22;30973;51.442;3.580;2022-08-30T13:30:08;25.00;82.80
45237;DHT22;30973;51.442;3.580;2022-08-30T13:32:39;25.20;83.40
45237;DHT22;30973;51.442;3.580;2022-08-30T13:35:07;25.40;83.40
45237;DHT22;30973;51.442;3.580;2022-08-30T13:37:35;25.60;82.80
45237;DHT22;30973;51.442;3.580;2022-08-30T13:40:18;25.70;81.80
45237;DHT22;30973;51.442;3.580;2022-08-30T13:42:45;25.70;82.50
45237;DHT22;30973;51.442;3.580;2022-08-30T13:45:14;25.80;82.40
45237;DHT22;30973;51.442;3.580;2022-08-30T13:48:02;25.60;81.50
45237;DHT22;30973;51.442;3.580;2022-08-30T13:50:32;25.50;81.90
45237;DHT22;30973;51.442;3.580;2022-08-30T13:52:59;25.30;80.60
45237;DHT22;30973;51.442;3.580;2022-08-30T13:55:27;25.20;81.60
45237;DHT22;30973;51.442;3.580;2022-08-30T13:57:54;25.30;82.30
45237;DHT22;30973;51.442;3.580;2022-08-30T14:00:24;25.30;81.10
45237;DHT22;30973;51.442;3.580;2022-08-30T14:02:52;25.30;80.20
45237;DHT22;30973;51.442;3.580;2022-08-30T14:05:35;25.20;80.40
45237;DHT22;30973;51.442;3.580;2022-08-30T14:08:27;25.10;79.90
45237;DHT22;30973;51.442;3.580;2022-08-30T14:11:17;25.10;80.20
45237;DHT22;30973;51.442;3.580;2022-08-30T14:13:46;25.20;80.30
45237;DHT22;30973;51.442;3.580;2022-08-30T14:16:35;25.20;80.10
45237;DHT22;30973;51.442;3.580;2022-08-30T14:19:04;25.40;80.10
45237;DHT22;30973;51.442;3.580;2022-08-30T14:21:34;25.50;79.90
45237;DHT22;30973;51.442;3.580;2022-08-30T14:24:02;25.30;78.50
45237;DHT22;30973;51.442;3.580;2022-08-30T14:29:04;25.10;77.60
45237;DHT22;30973;51.442;3.580;2022-08-30T14:31:36;25.10;78.90
45237;DHT22;30973;51.442;3.580;2022-08-30T14:34:04;25.10;78.20
45237;DHT22;30973;51.442;3.580;2022-08-30T14:36:34;25.00;78.20
45237;DHT22;30973;51.442;3.580;2022-08-30T14:39:07;25.00;78.60
45237;DHT22;30973;51.442;3.580;2022-08-30T14:41:40;25.00;78.00
45237;DHT22;30973;51.442;3.580;2022-08-30T14:44:13;24.90;77.60
45237;DHT22;30973;51.442;3.580;2022-08-30T14:46:41;24.90;79.70
45237;DHT22;30973;51.442;3.580;2022-08-30T14:49:10;24.90;78.80
45237;DHT22;30973;51.442;3.580;2022-08-30T14:51:39;24.90;78.30
45237;DHT22;30973;51.442;3.580;2022-08-30T14:54:07;24.90;78.30
45237;DHT22;30973;51.442;3.580;2022-08-30T14:56:37;24.90;78.00
45237;DHT22;30973;51.442;3.580;2022-08-30T14:59:05;25.00;78.50
45237;DHT22;30973;51.442;3.580;2022-08-30T15:01:34;24.90;77.70
45237;DHT22;30973;51.442;3.580;2022-08-30T15:04:04;25.00;79.00
45237;DHT22;30973;51.442;3.580;2022-08-30T15:06:37;25.10;78.80
45237;DHT22;30973;51.442;3.580;2022-08-30T15:09:07;25.10;78.60
45237;DHT22;30973;51.442;3.580;2022-08-30T15:11:35;25.20;77.70
45237;DHT22;30973;51.442;3.580;2022-08-30T15:14:05;25.20;76.70
45237;DHT22;30973;51.442;3.580;2022-08-30T15:16:34;25.10;76.80
45237;DHT22;30973;51.442;3.580;2022-08-30T15:19:04;25.00;77.20
45237;DHT22;30973;51.442;3.580;2022-08-30T15:21:44;25.10;80.30
45237;DHT22;30973;51.442;3.580;2022-08-30T15:24:14;25.10;81.50
45237;DHT22;30973;51.442;3.580;2022-08-30T15:26:42;25.10;79.90
45237;DHT22;30973;51.442;3.580;2022-08-30T15:29:12;25.10;78.00
45237;DHT22;30973;51.442;3.580;2022-08-30T15:31:40;24.90;80.00
45237;DHT22;30973;51.442;3.580;2022-08-30T15:34:10;25.00;80.10
45237;DHT22;30973;51.442;3.580;2022-08-30T15:36:38;24.90;77.70
45237;DHT22;30973;51.442;3.580;2022-08-30T15:39:07;24.90;77.40
45237;DHT22;30973;51.442;3.580;2022-08-30T15:41:35;24.80;76.30
45237;DHT22;30973;51.442;3.580;2022-08-30T15:44:06;24.80;83.10
45237;DHT22;30973;51.442;3.580;2022-08-30T15:46:35;24.70;77.10
45237;DHT22;30973;51.442;3.580;2022-08-30T15:49:09;24.70;77.20
45237;DHT22;30973;51.442;3.580;2022-08-30T15:51:37;24.70;78.50
45237;DHT22;30973;51.442;3.580;2022-08-30T15:54:10;24.70;78.70
45237;DHT22;30973;51.442;3.580;2022-08-30T15:56:37;24.60;79.20
45237;DHT22;30973;51.442;3.580;2022-08-30T15:59:05;24.70;79.80
45237;DHT22;30973;51.442;3.580;2022-08-30T16:01:35;24.80;79.90
45237;DHT22;30973;51.442;3.580;2022-08-30T16:04:03;24.70;79.50
45237;DHT22;30973;51.442;3.580;2022-08-30T16:06:32;24.70;80.10
45237;DHT22;30973;51.442;3.580;2022-08-30T16:09:01;24.70;80.60
45237;DHT22;30973;51.442;3.580;2022-08-30T16:11:30;24.60;81.30
45237;DHT22;30973;51.442;3.580;2022-08-30T16:13:58;24.60;81.80
45237;DHT22;30973;51.442;3.580;2022-08-30T16:16:25;24.50;82.80
45237;DHT22;30973;51.442;3.580;2022-08-30T16:18:53;24.50;82.40
45237;DHT22;30973;51.442;3.580;2022-08-30T16:21:26;24.50;82.60
45237;DHT22;30973;51.442;3.580;2022-08-30T16:23:56;24.50;83.10
45237;DHT22;30973;51.442;3.580;2022-08-30T16:26:25;24.50;82.80
45237;DHT22;30973;51.442;3.580;2022-08-30T16:28:54;24.50;83.00
45237;DHT22;30973;51.442;3.580;2022-08-30T16:31:22;24.40;82.80
45237;DHT22;30973;51.442;3.580;2022-08-30T16:33:52;24.50;82.90
45237;DHT22;30973;51.442;3.580;2022-08-30T16:36:21;24.50;82.60
45237;DHT22;30973;51.442;3.580;2022-08-30T16:38:52;24.40;82.40
45237;DHT22;30973;51.442;3.580;2022-08-30T16:41:24;24.40;83.10
45237;DHT22;30973;51.442;3.580;2022-08-30T16:43:51;24.40;82.40
45237;DHT22;30973;51.442;3.580;2022-08-30T16:46:22;24.20;83.00
45237;DHT22;30973;51.442;3.580;2022-08-30T16:48:57;24.10;83.50
45237;DHT22;30973;51.442;3.580;2022-08-30T16:51:27;24.10;83.60
45237;DHT22;30973;51.442;3.580;2022-08-30T16:54:00;24.00;83.50
45237;DHT22;30973;51.442;3.580;2022-08-30T16:56:29;24.00;83.00
45237;DHT22;30973;51.442;3.580;2022-08-30T16:58:58;24.00;83.30
45237;DHT22;30973;51.442;3.580;2022-08-30T17:01:30;24.00;83.20
45237;DHT22;30973;51.442;3.580;2022-08-30T17:04:00;24.00;82.90
45237;DHT22;30973;51.442;3.580;2022-08-30T17:06:27;23.90;82.80
45237;DHT22;30973;51.442;3.580;2022-08-30T17:08:55;23.90;83.40
45237;DHT22;30973;51.442;3.580;2022-08-30T17:11:23;23.80;83.60
45237;DHT22;30973;51.442;3.580;2022-08-30T17:13:51;23.80;83.50
45237;DHT22;30973;51.442;3.580;2022-08-30T17:16:19;23.70;83.50
45237;DHT22;30973;51.442;3.580;2022-08-30T17:18:58;23.70;83.70
45237;DHT22;30973;51.442;3.580;2022-08-30T17:21:30;23.60;84.30
45237;DHT22;30973;51.442;3.580;2022-08-30T17:23:58;23.60;85.70
45237;DHT22;30973;51.442;3.580;2022-08-30T17:26:34;23.40;86.20
45237;DHT22;30973;51.442;3.580;2022-08-30T17:29:03;23.40;86.30
45237;DHT22;30973;51.442;3.580;2022-08-30T17:31:30;23.30;87.20
45237;DHT22;30973;51.442;3.580;2022-08-30T17:34:01;23.30;87.70
45237;DHT22;30973;51.442;3.580;2022-08-30T17:36:32;23.30;87.60
45237;DHT22;30973;51.442;3.580;2022-08-30T17:39:04;23.30;87.80
45237;DHT22;30973;51.442;3.580;2022-08-30T17:41:42;23.30;88.10
45237;DHT22;30973;51.442;3.580;2022-08-30T17:44:18;23.20;88.30
45237;DHT22;30973;51.442;3.580;2022-08-30T17:46:46;23.20;88.60
45237;DHT22;30973;51.442;3.580;2022-08-30T17:49:13;23.10;88.80
45237;DHT22;30973;51.442;3.580;2022-08-30T17:51:41;23.10;89.50
45237;DHT22;30973;51.442;3.580;2022-08-30T17:54:10;23.00;89.20
45237;DHT22;30973;51.442;3.580;2022-08-30T17:56:40;22.90;89.10
45237;DHT22;30973;51.442;3.580;2022-08-30T17:59:09;23.00;89.30
45237;DHT22;30973;51.442;3.580;2022-08-30T18:01:38;22.90;89.10
45237;DHT22;30973;51.442;3.580;2022-08-30T18:04:09;22.90;89.60
45237;DHT22;30973;51.442;3.580;2022-08-30T18:06:36;22.90;89.70
45237;DHT22;30973;51.442;3.580;2022-08-30T18:09:06;22.80;89.90
45237;DHT22;30973;51.442;3.580;2022-08-30T18:11:37;22.70;89.50
45237;DHT22;30973;51.442;3.580;2022-08-30T18:14:08;22.70;90.00
45237;DHT22;30973;51.442;3.580;2022-08-30T18:16:39;22.70;89.90
45237;DHT22;30973;51.442;3.580;2022-08-30T18:19:21;22.60;90.20
45237;DHT22;30973;51.442;3.580;2022-08-30T18:21:48;22.60;90.10
45237;DHT22;30973;51.442;3.580;2022-08-30T18:24:15;22.50;90.20
45237;DHT22;30973;51.442;3.580;2022-08-30T18:26:43;22.50;90.10
45237;DHT22;30973;51.442;3.580;2022-08-30T18:29:10;22.40;90.30
45237;DHT22;30973;51.442;3.580;2022-08-30T18:31:38;22.40;90.20
45237;DHT22;30973;51.442;3.580;2022-08-30T18:34:05;22.30;90.50
45237;DHT22;30973;51.442;3.580;2022-08-30T18:36:39;22.30;90.40
45237;DHT22;30973;51.442;3.580;2022-08-30T18:39:07;22.20;90.70
45237;DHT22;30973;51.442;3.580;2022-08-30T18:41:36;22.20;90.60
45237;DHT22;30973;51.442;3.580;2022-08-30T18:44:09;22.20;90.70
45237;DHT22;30973;51.442;3.580;2022-08-30T18:46:54;22.20;90.80
45237;DHT22;30973;51.442;3.580;2022-08-30T18:49:24;22.10;90.70
45237;DHT22;30973;51.442;3.580;2022-08-30T18:51:51;22.10;90.80
45237;DHT22;30973;51.442;3.580;2022-08-30T18:54:19;22.00;90.80
45237;DHT22;30973;51.442;3.580;2022-08-30T18:56:46;22.10;90.90
45237;DHT22;30973;51.442;3.580;2022-08-30T18:59:17;22.10;91.00
45237;DHT22;30973;51.442;3.580;2022-08-30T19:01:45;22.00;90.90
45237;DHT22;30973;51.442;3.580;2022-08-30T19:04:15;22.00;91.30
45237;DHT22;30973;51.442;3.580;2022-08-30T19:06:55;22.00;91.20
45237;DHT22;30973;51.442;3.580;2022-08-30T19:09:23;21.90;91.30
45237;DHT22;30973;51.442;3.580;2022-08-30T19:11:52;21.90;91.20
45237;DHT22;30973;51.442;3.580;2022-08-30T19:14:20;21.90;91.30
45237;DHT22;30973;51.442;3.580;2022-08-30T19:16:47;21.90;91.40
45237;DHT22;30973;51.442;3.580;2022-08-30T19:19:15;21.90;91.40
45237;DHT22;30973;51.442;3.580;2022-08-30T19:21:42;21.90;91.30
45237;DHT22;30973;51.442;3.580;2022-08-30T19:24:10;21.90;91.50
45237;DHT22;30973;51.442;3.580;2022-08-30T19:26:42;21.90;91.50
45237;DHT22;30973;51.442;3.580;2022-08-30T19:29:13;21.80;91.50
45237;DHT22;30973;51.442;3.580;2022-08-30T19:31:40;21.80;91.40
45237;DHT22;30973;51.442;3.580;2022-08-30T19:34:10;21.80;91.70
45237;DHT22;30973;51.442;3.580;2022-08-30T19:36:37;21.80;91.70
45237;DHT22;30973;51.442;3.580;2022-08-30T19:39:05;21.80;91.60
45237;DHT22;30973;51.442;3.580;2022-08-30T19:41:33;21.70;91.80
45237;DHT22;30973;51.442;3.580;2022-08-30T19:44:01;21.70;91.90
45237;DHT22;30973;51.442;3.580;2022-08-30T19:46:29;21.70;91.90
45237;DHT22;30973;51.442;3.580;2022-08-30T19:48:58;21.70;91.90
45237;DHT22;30973;51.442;3.580;2022-08-30T19:51:27;21.60;91.90
45237;DHT22;30973;51.442;3.580;2022-08-30T19:53:54;21.60;92.30
45237;DHT22;30973;51.442;3.580;2022-08-30T19:56:24;21.60;92.00
45237;DHT22;30973;51.442;3.580;2022-08-30T19:58:52;21.60;92.10
45237;DHT22;30973;51.442;3.580;2022-08-30T20:01:19;21.60;92.10
45237;DHT22;30973;51.442;3.580;2022-08-30T20:04:00;21.60;92.10
45237;DHT22;30973;51.442;3.580;2022-08-30T20:06:29;21.60;92.10
45237;DHT22;30973;51.442;3.580;2022-08-30T20:08:57;21.50;92.40
45237;DHT22;30973;51.442;3.580;2022-08-30T20:11:27;21.50;92.20
45237;DHT22;30973;51.442;3.580;2022-08-30T20:13:55;21.50;92.30
45237;DHT22;30973;51.442;3.580;2022-08-30T20:16:24;21.50;92.60
45237;DHT22;30973;51.442;3.580;2022-08-30T20:19:05;21.50;92.40
45237;DHT22;30973;51.442;3.580;2022-08-30T20:21:32;21.40;92.70
45237;DHT22;30973;51.442;3.580;2022-08-30T20:24:01;21.40;92.40
45237;DHT22;30973;51.442;3.580;2022-08-30T20:26:30;21.40;92.30
45237;DHT22;30973;51.442;3.580;2022-08-30T20:29:03;21.30;92.50
45237;DHT22;30973;51.442;3.580;2022-08-30T20:31:31;21.30;92.40
45237;DHT22;30973;51.442;3.580;2022-08-30T20:34:00;21.30;92.40
45237;DHT22;30973;51.442;3.580;2022-08-30T20:36:27;21.30;92.50
45237;DHT22;30973;51.442;3.580;2022-08-30T20:38:55;21.20;92.70
45237;DHT22;30973;51.442;3.580;2022-08-30T20:41:22;21.20;92.70
45237;DHT22;30973;51.442;3.580;2022-08-30T20:43:50;21.20;92.70
45237;DHT22;30973;51.442;3.580;2022-08-30T20:46:19;21.20;92.80
45237;DHT22;30973;51.442;3.580;2022-08-30T20:48:46;21.20;92.90
45237;DHT22;30973;51.442;3.580;2022-08-30T20:51:17;21.20;93.00
45237;DHT22;30973;51.442;3.580;2022-08-30T20:53:45;21.20;92.90
45237;DHT22;30973;51.442;3.580;2022-08-30T20:56:14;21.10;92.90
45237;DHT22;30973;51.442;3.580;2022-08-30T20:58:42;21.10;92.90
45237;DHT22;30973;51.442;3.580;2022-08-30T21:01:10;21.10;93.10
45237;DHT22;30973;51.442;3.580;2022-08-30T21:03:38;21.10;93.10
45237;DHT22;30973;51.442;3.580;2022-08-30T21:06:06;21.10;93.20
45237;DHT22;30973;51.442;3.580;2022-08-30T21:08:34;21.10;93.30
45237;DHT22;30973;51.442;3.580;2022-08-30T21:11:01;21.10;93.10
45237;DHT22;30973;51.442;3.580;2022-08-30T21:13:28;21.10;92.90
45237;DHT22;30973;51.442;3.580;2022-08-30T21:15:58;21.10;92.80
45237;DHT22;30973;51.442;3.580;2022-08-30T21:18:31;21.10;92.90
45237;DHT22;30973;51.442;3.580;2022-08-30T21:21:11;21.10;92.80
45237;DHT22;30973;51.442;3.580;2022-08-30T21:23:39;21.00;92.70
45237;DHT22;30973;51.442;3.580;2022-08-30T21:26:07;21.00;92.70
45237;DHT22;30973;51.442;3.580;2022-08-30T21:28:35;21.00;92.90
45237;DHT22;30973;51.442;3.580;2022-08-30T21:31:11;20.90;92.80
45237;DHT22;30973;51.442;3.580;2022-08-30T21:33:40;20.90;93.10
45237;DHT22;30973;51.442;3.580;2022-08-30T21:36:08;20.90;93.00
45237;DHT22;30973;51.442;3.580;2022-08-30T21:38:54;20.90;92.90
45237;DHT22;30973;51.442;3.580;2022-08-30T21:41:27;20.90;93.10
45237;DHT22;30973;51.442;3.580;2022-08-30T21:43:56;20.90;93.10
45237;DHT22;30973;51.442;3.580;2022-08-30T21:46:24;20.80;93.00
45237;DHT22;30973;51.442;3.580;2022-08-30T21:48:53;20.80;93.00
45237;DHT22;30973;51.442;3.580;2022-08-30T21:51:22;20.80;93.20
45237;DHT22;30973;51.442;3.580;2022-08-30T21:53:49;20.80;93.20
45237;DHT22;30973;51.442;3.580;2022-08-30T21:56:20;20.80;93.40
45237;DHT22;30973;51.442;3.580;2022-08-30T21:58:48;20.80;93.40
45237;DHT22;30973;51.442;3.580;2022-08-30T22:01:23;20.80;93.40
45237;DHT22;30973;51.442;3.580;2022-08-30T22:03:53;20.80;93.40
45237;DHT22;30973;51.442;3.580;2022-08-30T22:06:21;20.70;93.50
45237;DHT22;30973;51.442;3.580;2022-08-30T22:08:51;20.70;93.60
45237;DHT22;30973;51.442;3.580;2022-08-30T22:11:23;20.60;94.00
45237;DHT22;30973;51.442;3.580;2022-08-30T22:13:53;20.60;93.70
45237;DHT22;30973;51.442;3.580;2022-08-30T22:16:21;20.60;93.90
45237;DHT22;30973;51.442;3.580;2022-08-30T22:18:49;20.60;93.80
45237;DHT22;30973;51.442;3.580;2022-08-30T22:21:19;20.50;93.90
45237;DHT22;30973;51.442;3.580;2022-08-30T22:23:47;20.50;94.10
45237;DHT22;30973;51.442;3.580;2022-08-30T22:26:16;20.50;94.10
45237;DHT22;30973;51.442;3.580;2022-08-30T22:28:44;20.50;94.10
45237;DHT22;30973;51.442;3.580;2022-08-30T22:31:13;20.50;94.10
45237;DHT22;30973;51.442;3.580;2022-08-30T22:33:41;20.50;94.20
45237;DHT22;30973;51.442;3.580;2022-08-30T22:36:15;20.50;94.20
45237;DHT22;30973;51.442;3.580;2022-08-30T22:38:43;20.40;94.40
45237;DHT22;30973;51.442;3.580;2022-08-30T22:41:15;20.40;94.40
45237;DHT22;30973;51.442;3.580;2022-08-30T22:43:43;20.40;94.50
45237;DHT22;30973;51.442;3.580;2022-08-30T22:46:11;20.30;94.60
45237;DHT22;30973;51.442;3.580;2022-08-30T22:48:40;20.30;94.70
45237;DHT22;30973;51.442;3.580;2022-08-30T22:51:08;20.40;94.80
45237;DHT22;30973;51.442;3.580;2022-08-30T22:53:39;20.30;95.00
45237;DHT22;30973;51.442;3.580;2022-08-30T22:56:08;20.30;95.00
45237;DHT22;30973;51.442;3.580;2022-08-30T22:58:36;20.30;94.90
45237;DHT22;30973;51.442;3.580;2022-08-30T23:01:03;20.30;95.10
45237;DHT22;30973;51.442;3.580;2022-08-30T23:03:33;20.30;95.00
45237;DHT22;30973;51.442;3.580;2022-08-30T23:06:01;20.30;95.40
45237;DHT22;30973;51.442;3.580;2022-08-30T23:08:28;20.30;95.30
45237;DHT22;30973;51.442;3.580;2022-08-30T23:10:56;20.20;95.20
45237;DHT22;30973;51.442;3.580;2022-08-30T23:13:23;20.20;95.40
45237;DHT22;30973;51.442;3.580;2022-08-30T23:15:51;20.20;95.60
45237;DHT22;30973;51.442;3.580;2022-08-30T23:18:19;20.20;96.10
45237;DHT22;30973;51.442;3.580;2022-08-30T23:20:46;20.10;95.80
45237;DHT22;30973;51.442;3.580;2022-08-30T23:23:13;20.00;95.90
45237;DHT22;30973;51.442;3.580;2022-08-30T23:26:00;20.00;96.00
45237;DHT22;30973;51.442;3.580;2022-08-30T23:28:45;19.90;96.50
45237;DHT22;30973;51.442;3.580;2022-08-30T23:31:31;20.00;96.20
45237;DHT22;30973;51.442;3.580;2022-08-30T23:34:17;20.00;96.40
45237;DHT22;30973;51.442;3.580;2022-08-30T23:37:04;20.00;96.60
45237;DHT22;30973;51.442;3.580;2022-08-30T23:39:50;20.00;96.50